createdAt,value
2017-01-31T00:01:02.460Z,0
2017-01-31T00:02:11.453Z,0
2017-01-31T00:03:20.446Z,0
2017-01-31T00:04:29.434Z,0
2017-01-31T00:05:38.420Z,0
2017-01-31T00:06:47.412Z,0
2017-01-31T00:07:56.396Z,0
2017-01-31T00:09:05.392Z,0
2017-01-31T00:10:14.397Z,0
2017-01-31T00:11:23.384Z,0
2017-01-31T00:12:32.373Z,0
2017-01-31T00:13:41.377Z,0
2017-01-31T00:14:50.363Z,0
2017-01-31T00:15:59.775Z,0
2017-01-31T00:17:09.162Z,0
2017-01-31T00:18:18.151Z,0
2017-01-31T00:19:27.143Z,0
2017-01-31T00:20:36.131Z,0
2017-01-31T00:21:45.111Z,0
2017-01-31T00:22:54.094Z,0
2017-01-31T00:24:03.491Z,0
2017-01-31T00:25:12.477Z,0
2017-01-31T00:26:21.477Z,0
2017-01-31T00:27:30.476Z,0
2017-01-31T00:28:39.467Z,0
2017-01-31T00:29:48.472Z,0
2017-01-31T00:30:57.461Z,0
2017-01-31T00:32:06.462Z,0
2017-01-31T00:33:15.447Z,0
2017-01-31T00:34:24.438Z,0
2017-01-31T00:35:33.847Z,0
2017-01-31T00:36:42.831Z,0
2017-01-31T00:37:51.826Z,0
2017-01-31T00:39:00.812Z,0
2017-01-31T00:40:09.845Z,0
2017-01-31T00:41:18.847Z,0
2017-01-31T00:42:27.836Z,0
2017-01-31T00:43:36.829Z,0
2017-01-31T00:44:45.808Z,0
2017-01-31T00:45:54.795Z,0
2017-01-31T00:47:03.772Z,0
2017-01-31T00:48:12.775Z,0
2017-01-31T00:49:21.748Z,0
2017-01-31T00:50:30.738Z,0
2017-01-31T00:51:40.139Z,0
2017-01-31T00:52:49.119Z,0
2017-01-31T00:53:58.108Z,0
2017-01-31T00:55:07.109Z,0
2017-01-31T00:56:16.103Z,0
2017-01-31T00:57:25.474Z,0
2017-01-31T00:58:34.867Z,0
2017-01-31T00:59:43.858Z,0
2017-01-31T01:00:52.844Z,0
2017-01-31T01:02:01.842Z,0
2017-01-31T01:03:10.829Z,0
2017-01-31T01:04:19.879Z,0
2017-01-31T01:05:28.879Z,0
2017-01-31T01:06:37.857Z,0
2017-01-31T01:07:46.852Z,0
2017-01-31T01:08:55.835Z,0
2017-01-31T01:10:04.815Z,0
2017-01-31T01:11:13.801Z,0
2017-01-31T01:12:22.817Z,0
2017-01-31T01:13:31.806Z,0
2017-01-31T01:14:40.784Z,0
2017-01-31T01:15:49.772Z,0
2017-01-31T01:16:58.757Z,0
2017-01-31T01:18:07.743Z,0
2017-01-31T01:19:16.729Z,0
2017-01-31T01:20:25.708Z,0
2017-01-31T01:21:34.699Z,0
2017-01-31T01:22:43.681Z,0
2017-01-31T01:23:52.695Z,0
2017-01-31T01:25:01.668Z,0
2017-01-31T01:26:10.657Z,0
2017-01-31T01:27:19.653Z,0
2017-01-31T01:28:28.635Z,0
2017-01-31T01:29:37.630Z,0
2017-01-31T01:30:46.619Z,0
2017-01-31T01:31:55.627Z,0
2017-01-31T01:33:04.612Z,0
2017-01-31T01:34:14.024Z,0
2017-01-31T01:35:23.010Z,0
2017-01-31T01:36:32.006Z,0
2017-01-31T01:37:40.979Z,0
2017-01-31T01:38:49.952Z,0
2017-01-31T01:39:58.952Z,0
2017-01-31T01:41:07.932Z,0
2017-01-31T01:42:16.915Z,0
2017-01-31T01:43:25.908Z,0
2017-01-31T01:44:34.893Z,0
2017-01-31T01:45:43.873Z,0
2017-01-31T01:46:52.873Z,0
2017-01-31T01:48:01.864Z,0
2017-01-31T01:49:11.251Z,0
2017-01-31T01:50:20.236Z,0
2017-01-31T01:51:29.219Z,0
2017-01-31T01:52:38.206Z,0
2017-01-31T01:53:47.197Z,0
2017-01-31T01:54:56.182Z,0
2017-01-31T01:56:05.166Z,0
2017-01-31T01:57:14.152Z,0
2017-01-31T01:58:23.148Z,0
2017-01-31T01:59:32.134Z,0
2017-01-31T02:00:41.130Z,0
2017-01-31T02:01:50.120Z,0
2017-01-31T02:02:59.106Z,0
2017-01-31T02:04:08.115Z,0
2017-01-31T02:05:17.107Z,0
2017-01-31T02:06:26.089Z,0
2017-01-31T02:07:35.080Z,0
2017-01-31T02:08:44.067Z,0
2017-01-31T02:09:53.045Z,0
2017-01-31T02:11:02.024Z,0
2017-01-31T02:12:11.010Z,0
2017-01-31T02:13:19.989Z,0
2017-01-31T02:14:28.979Z,0
2017-01-31T02:15:37.956Z,0
2017-01-31T02:16:46.943Z,0
2017-01-31T02:17:55.919Z,0
2017-01-31T02:19:05.358Z,0
2017-01-31T02:20:14.330Z,0
2017-01-31T02:21:23.328Z,0
2017-01-31T02:22:32.308Z,0
2017-01-31T02:23:41.292Z,0
2017-01-31T02:24:50.266Z,0
2017-01-31T02:25:59.259Z,0
2017-01-31T02:27:08.251Z,0
2017-01-31T02:28:17.228Z,0
2017-01-31T02:29:26.214Z,0
2017-01-31T02:30:35.192Z,0
2017-01-31T02:31:44.186Z,0
2017-01-31T02:32:53.170Z,0
2017-01-31T02:34:02.155Z,0
2017-01-31T02:35:11.141Z,0
2017-01-31T02:36:20.134Z,0
2017-01-31T02:37:29.131Z,0
2017-01-31T02:38:38.107Z,0
2017-01-31T02:39:47.095Z,0
2017-01-31T02:40:56.081Z,0
2017-01-31T02:42:05.071Z,0
2017-01-31T02:43:14.053Z,0
2017-01-31T02:44:23.037Z,0
2017-01-31T02:45:32.436Z,0
2017-01-31T02:46:41.826Z,0
2017-01-31T02:47:50.820Z,0
2017-01-31T02:48:59.805Z,0
2017-01-31T02:50:08.798Z,0
2017-01-31T02:51:17.773Z,0
2017-01-31T02:52:26.758Z,0
2017-01-31T02:53:35.740Z,0
2017-01-31T02:54:44.728Z,0
2017-01-31T02:55:53.710Z,0
2017-01-31T02:57:02.696Z,0
2017-01-31T02:58:11.677Z,0
2017-01-31T02:59:21.082Z,0
2017-01-31T03:00:30.487Z,0
2017-01-31T03:01:39.485Z,0
2017-01-31T03:02:48.470Z,0
2017-01-31T03:03:57.464Z,0
2017-01-31T03:05:06.443Z,0
2017-01-31T03:06:15.430Z,0
2017-01-31T03:07:24.422Z,0
2017-01-31T03:08:33.405Z,0
2017-01-31T03:09:42.426Z,0
2017-01-31T03:10:51.404Z,0
2017-01-31T03:12:00.401Z,0
2017-01-31T03:13:09.799Z,0
2017-01-31T03:14:18.785Z,0
2017-01-31T03:15:27.757Z,0
2017-01-31T03:16:36.742Z,0
2017-01-31T03:17:45.725Z,0
2017-01-31T03:18:54.716Z,0
2017-01-31T03:20:03.696Z,0
2017-01-31T03:21:12.672Z,0
2017-01-31T03:22:21.653Z,0
2017-01-31T03:23:30.635Z,0
2017-01-31T03:24:39.631Z,0
2017-01-31T03:25:48.620Z,0
2017-01-31T03:26:57.610Z,0
2017-01-31T03:28:06.592Z,0
2017-01-31T03:29:15.566Z,0
2017-01-31T03:30:24.567Z,0
2017-01-31T03:31:33.561Z,0
2017-01-31T03:32:42.533Z,0
2017-01-31T03:33:51.526Z,0
2017-01-31T03:35:00.509Z,0
2017-01-31T03:36:09.487Z,0
2017-01-31T03:37:18.525Z,0
2017-01-31T03:38:27.607Z,0
2017-01-31T03:39:36.578Z,0
2017-01-31T03:40:45.563Z,0
2017-01-31T03:41:54.546Z,0
2017-01-31T03:43:03.547Z,0
2017-01-31T03:44:12.532Z,0
2017-01-31T03:45:21.513Z,0
2017-01-31T03:46:30.494Z,0
2017-01-31T03:47:39.473Z,0
2017-01-31T03:48:48.459Z,0
2017-01-31T03:49:57.432Z,0
2017-01-31T03:51:06.425Z,0
2017-01-31T03:52:15.410Z,0
2017-01-31T03:53:24.805Z,0
2017-01-31T03:54:33.792Z,0
2017-01-31T03:55:42.766Z,0
2017-01-31T03:56:51.763Z,0
2017-01-31T03:58:01.148Z,0
2017-01-31T03:59:10.148Z,0
2017-01-31T04:00:19.123Z,0
2017-01-31T04:01:28.094Z,0
2017-01-31T04:02:37.077Z,0
2017-01-31T04:03:46.478Z,0
2017-01-31T04:04:55.473Z,0
2017-01-31T04:06:04.861Z,0
2017-01-31T04:07:14.301Z,0
2017-01-31T04:08:23.270Z,0
2017-01-31T04:09:32.269Z,0
2017-01-31T04:10:41.245Z,0
2017-01-31T04:11:50.238Z,0
2017-01-31T04:12:59.211Z,0
2017-01-31T04:14:08.190Z,0
2017-01-31T04:15:17.172Z,0
2017-01-31T04:16:26.149Z,0
2017-01-31T04:17:35.131Z,0
2017-01-31T04:18:44.111Z,0
2017-01-31T04:19:53.108Z,0
2017-01-31T04:21:02.087Z,0
2017-01-31T04:22:11.069Z,0
2017-01-31T04:23:20.058Z,0
2017-01-31T04:24:29.042Z,0
2017-01-31T04:25:38.029Z,0
2017-01-31T04:26:47.013Z,0
2017-01-31T04:27:56.003Z,0
2017-01-31T04:29:04.979Z,0
2017-01-31T04:30:13.960Z,0
2017-01-31T04:31:22.952Z,0
2017-01-31T04:32:31.939Z,0
2017-01-31T04:33:40.933Z,0
2017-01-31T04:34:49.911Z,0
2017-01-31T04:35:58.902Z,0
2017-01-31T04:37:08.302Z,0
2017-01-31T04:38:17.295Z,0
2017-01-31T04:39:26.685Z,0
2017-01-31T04:40:35.675Z,0
2017-01-31T04:41:44.653Z,0
2017-01-31T04:42:53.628Z,0
2017-01-31T04:44:02.610Z,0
2017-01-31T04:45:11.595Z,0
2017-01-31T04:46:20.574Z,0
2017-01-31T04:47:29.597Z,0
2017-01-31T04:48:38.591Z,0
2017-01-31T04:49:47.581Z,0
2017-01-31T04:50:56.566Z,0
2017-01-31T04:52:05.566Z,0
2017-01-31T04:53:14.545Z,0
2017-01-31T04:54:23.950Z,0
2017-01-31T04:55:32.926Z,0
2017-01-31T04:56:41.927Z,0
2017-01-31T04:57:51.577Z,0
2017-01-31T04:59:00.952Z,0
2017-01-31T05:00:10.360Z,0
2017-01-31T05:01:19.347Z,0
2017-01-31T05:02:28.338Z,0
2017-01-31T05:03:37.318Z,0
2017-01-31T05:04:46.310Z,0
2017-01-31T05:05:55.282Z,0
2017-01-31T05:07:04.706Z,0
2017-01-31T05:08:14.107Z,0
2017-01-31T05:09:23.085Z,0
2017-01-31T05:10:32.081Z,0
2017-01-31T05:11:41.069Z,0
2017-01-31T05:12:50.460Z,0
2017-01-31T05:13:59.470Z,0
2017-01-31T05:15:08.475Z,0
2017-01-31T05:16:17.894Z,0
2017-01-31T05:17:26.921Z,0
2017-01-31T05:18:35.912Z,0
2017-01-31T05:19:45.298Z,0
2017-01-31T05:20:54.291Z,0
2017-01-31T05:22:03.689Z,0
2017-01-31T05:23:13.107Z,0
2017-01-31T05:24:22.107Z,0
2017-01-31T05:25:31.088Z,0
2017-01-31T05:26:40.073Z,0
2017-01-31T05:27:49.063Z,0
2017-01-31T05:28:58.054Z,0
2017-01-31T05:30:07.031Z,0
2017-01-31T05:31:16.018Z,0
2017-01-31T05:32:25.002Z,0
2017-01-31T05:33:33.989Z,0
2017-01-31T05:34:43.005Z,0
2017-01-31T05:35:52.022Z,0
2017-01-31T05:37:01.007Z,0
2017-01-31T05:38:09.988Z,0
2017-01-31T05:39:19.016Z,0
2017-01-31T05:40:28.002Z,0
2017-01-31T05:41:36.996Z,0
2017-01-31T05:42:45.977Z,0
2017-01-31T05:43:54.955Z,0
2017-01-31T05:45:03.942Z,0
2017-01-31T05:46:12.929Z,0
2017-01-31T05:47:21.916Z,0
2017-01-31T05:48:30.894Z,0
2017-01-31T05:49:39.888Z,0
2017-01-31T05:50:48.867Z,0
2017-01-31T05:51:57.849Z,0
2017-01-31T05:53:06.834Z,0
2017-01-31T05:54:15.823Z,0
2017-01-31T05:55:24.822Z,0
2017-01-31T05:56:33.818Z,0
2017-01-31T05:57:42.830Z,0
2017-01-31T05:58:51.805Z,0
2017-01-31T06:00:00.799Z,0
2017-01-31T06:01:09.779Z,0
2017-01-31T06:02:18.775Z,0
2017-01-31T06:03:27.752Z,0
2017-01-31T06:04:36.733Z,0
2017-01-31T06:05:45.708Z,0
2017-01-31T06:06:54.706Z,0
2017-01-31T06:08:03.695Z,0
2017-01-31T06:09:12.677Z,0
2017-01-31T06:10:21.665Z,0
2017-01-31T06:11:30.642Z,0
2017-01-31T06:12:39.630Z,0
2017-01-31T06:13:48.620Z,0
2017-01-31T06:14:57.603Z,0
2017-01-31T06:16:06.591Z,0
2017-01-31T06:17:15.581Z,0
2017-01-31T06:18:24.570Z,0
2017-01-31T06:19:33.550Z,0
2017-01-31T06:20:42.527Z,0
2017-01-31T06:21:51.517Z,0
2017-01-31T06:23:00.495Z,0
2017-01-31T06:24:09.490Z,0
2017-01-31T06:25:18.472Z,0
2017-01-31T06:26:27.456Z,0
2017-01-31T06:27:36.453Z,0
2017-01-31T06:28:45.447Z,0
2017-01-31T06:29:54.427Z,0
2017-01-31T06:31:03.422Z,0
2017-01-31T06:32:12.401Z,0
2017-01-31T06:33:21.381Z,0
2017-01-31T06:34:30.368Z,0
2017-01-31T06:35:39.355Z,0
2017-01-31T06:36:48.758Z,0
2017-01-31T06:37:58.191Z,0
2017-01-31T06:39:07.170Z,0
2017-01-31T06:40:16.560Z,0
2017-01-31T06:41:25.544Z,0
2017-01-31T06:42:34.538Z,4
2017-01-31T06:43:43.555Z,4
2017-01-31T06:44:52.535Z,4
2017-01-31T06:46:01.514Z,4
2017-01-31T06:47:10.507Z,4
2017-01-31T06:48:19.494Z,0
2017-01-31T06:49:28.529Z,0
2017-01-31T06:50:37.512Z,4
2017-01-31T06:51:46.507Z,4
2017-01-31T06:52:55.487Z,4
2017-01-31T06:54:04.886Z,4
2017-01-31T06:55:14.340Z,4
2017-01-31T06:56:23.334Z,8
2017-01-31T06:57:32.325Z,8
2017-01-31T06:58:41.297Z,8
2017-01-31T06:59:50.298Z,8
2017-01-31T07:00:59.276Z,8
2017-01-31T07:02:08.695Z,8
2017-01-31T07:03:17.679Z,8
2017-01-31T07:04:26.663Z,8
2017-01-31T07:05:35.647Z,8
2017-01-31T07:06:44.643Z,12
2017-01-31T07:07:54.037Z,8
2017-01-31T07:09:03.559Z,12
2017-01-31T07:10:12.554Z,12
2017-01-31T07:11:21.538Z,12
2017-01-31T07:12:30.518Z,12
2017-01-31T07:13:39.519Z,12
2017-01-31T07:14:48.500Z,12
2017-01-31T07:15:57.484Z,12
2017-01-31T07:17:06.464Z,12
2017-01-31T07:18:15.454Z,12
2017-01-31T07:19:24.441Z,16
2017-01-31T07:20:33.436Z,16
2017-01-31T07:21:42.446Z,16
2017-01-31T07:22:51.424Z,16
2017-01-31T07:24:00.422Z,20
2017-01-31T07:25:09.820Z,20
2017-01-31T07:26:18.815Z,20
2017-01-31T07:27:27.802Z,20
2017-01-31T07:28:36.805Z,20
2017-01-31T07:29:45.791Z,20
2017-01-31T07:30:55.193Z,20
2017-01-31T07:32:04.187Z,20
2017-01-31T07:33:13.193Z,24
2017-01-31T07:34:22.185Z,24
2017-01-31T07:35:31.184Z,20
2017-01-31T07:36:40.155Z,24
2017-01-31T07:37:49.193Z,28
2017-01-31T07:38:58.183Z,32
2017-01-31T07:40:07.163Z,32
2017-01-31T07:41:16.147Z,36
2017-01-31T07:42:25.141Z,32
2017-01-31T07:43:34.133Z,36
2017-01-31T07:44:43.123Z,36
2017-01-31T07:45:52.107Z,40
2017-01-31T07:47:01.080Z,40
2017-01-31T07:48:10.074Z,48
2017-01-31T07:49:19.476Z,48
2017-01-31T07:50:28.474Z,52
2017-01-31T07:51:37.458Z,56
2017-01-31T07:52:46.448Z,64
2017-01-31T07:53:55.437Z,60
2017-01-31T07:55:04.441Z,64
2017-01-31T07:56:14.260Z,64
2017-01-31T07:57:23.261Z,64
2017-01-31T07:58:32.236Z,64
2017-01-31T07:59:41.235Z,52
2017-01-31T08:00:50.218Z,56
2017-01-31T08:01:59.640Z,56
2017-01-31T08:03:08.764Z,52
2017-01-31T08:04:18.917Z,64
2017-01-31T08:05:27.946Z,60
2017-01-31T08:06:36.930Z,56
2017-01-31T08:07:45.920Z,56
2017-01-31T08:08:54.913Z,64
2017-01-31T08:10:03.913Z,56
2017-01-31T08:11:13.308Z,56
2017-01-31T08:12:22.279Z,52
2017-01-31T08:13:31.268Z,44
2017-01-31T08:14:40.249Z,44
2017-01-31T08:15:49.251Z,40
2017-01-31T08:16:58.234Z,40
2017-01-31T08:18:07.242Z,44
2017-01-31T08:19:16.653Z,52
2017-01-31T08:20:27.195Z,56
2017-01-31T08:21:36.185Z,68
2017-01-31T08:22:45.173Z,80
2017-01-31T08:23:54.174Z,84
2017-01-31T08:25:03.158Z,84
2017-01-31T08:26:12.147Z,72
2017-01-31T08:27:21.152Z,80
2017-01-31T08:28:30.136Z,88
2017-01-31T08:29:39.125Z,92
2017-01-31T08:30:48.370Z,92
2017-01-31T08:31:57.351Z,88
2017-01-31T08:33:06.755Z,92
2017-01-31T08:34:15.740Z,88
2017-01-31T08:35:24.729Z,88
2017-01-31T08:36:33.718Z,80
2017-01-31T08:37:42.702Z,80
2017-01-31T08:38:51.685Z,76
2017-01-31T08:40:00.677Z,64
2017-01-31T08:41:10.072Z,68
2017-01-31T08:42:19.053Z,56
2017-01-31T08:43:28.045Z,48
2017-01-31T08:44:37.029Z,44
2017-01-31T08:45:46.181Z,44
2017-01-31T08:46:56.204Z,40
2017-01-31T08:48:05.633Z,40
2017-01-31T08:49:14.625Z,48
2017-01-31T08:50:23.673Z,52
2017-01-31T08:51:32.650Z,56
2017-01-31T08:52:41.655Z,60
2017-01-31T08:53:51.098Z,64
2017-01-31T08:55:00.214Z,64
2017-01-31T08:56:09.194Z,68
2017-01-31T08:57:18.177Z,72
2017-01-31T08:58:27.151Z,68
2017-01-31T08:59:36.561Z,76
2017-01-31T09:00:45.600Z,76
2017-01-31T09:01:54.632Z,76
2017-01-31T09:03:04.061Z,76
2017-01-31T09:04:13.043Z,72
2017-01-31T09:05:22.087Z,72
2017-01-31T09:06:31.084Z,60
2017-01-31T09:07:40.117Z,60
2017-01-31T09:08:49.091Z,60
2017-01-31T09:09:58.078Z,68
2017-01-31T09:11:07.085Z,72
2017-01-31T09:12:16.497Z,68
2017-01-31T09:13:25.475Z,68
2017-01-31T09:14:34.873Z,56
2017-01-31T09:15:43.862Z,56
2017-01-31T09:16:52.841Z,56
2017-01-31T09:18:01.831Z,64
2017-01-31T09:19:10.829Z,64
2017-01-31T09:20:19.815Z,64
2017-01-31T09:21:28.799Z,76
2017-01-31T09:22:37.777Z,72
2017-01-31T09:23:46.781Z,80
2017-01-31T09:24:55.766Z,88
2017-01-31T09:26:04.750Z,100
2017-01-31T09:27:14.144Z,108
2017-01-31T09:28:23.127Z,104
2017-01-31T09:29:32.106Z,104
2017-01-31T09:30:41.102Z,108
2017-01-31T09:31:50.101Z,116
2017-01-31T09:32:59.086Z,132
2017-01-31T09:34:08.090Z,124
2017-01-31T09:35:17.208Z,132
2017-01-31T09:36:26.253Z,152
2017-01-31T09:37:35.318Z,144
2017-01-31T09:38:44.675Z,136
2017-01-31T09:39:54.063Z,136
2017-01-31T09:41:03.059Z,136
2017-01-31T09:42:12.464Z,132
2017-01-31T09:43:21.468Z,148
2017-01-31T09:44:30.458Z,160
2017-01-31T09:45:39.466Z,168
2017-01-31T09:46:48.451Z,164
2017-01-31T09:47:57.458Z,172
2017-01-31T09:49:06.693Z,172
2017-01-31T09:50:16.083Z,168
2017-01-31T09:51:25.461Z,172
2017-01-31T09:52:34.446Z,200
2017-01-31T09:53:43.443Z,212
2017-01-31T09:54:52.444Z,224
2017-01-31T09:56:01.442Z,232
2017-01-31T09:57:10.441Z,248
2017-01-31T09:58:19.425Z,252
2017-01-31T09:59:28.411Z,268
2017-01-31T10:00:37.486Z,252
2017-01-31T10:01:46.473Z,284
2017-01-31T10:02:55.475Z,276
2017-01-31T10:04:04.461Z,256
2017-01-31T10:05:13.454Z,248
2017-01-31T10:06:22.436Z,216
2017-01-31T10:07:31.458Z,192
2017-01-31T10:08:40.434Z,172
2017-01-31T10:09:49.406Z,188
2017-01-31T10:10:58.476Z,184
2017-01-31T10:12:07.464Z,196
2017-01-31T10:13:16.449Z,192
2017-01-31T10:14:25.438Z,180
2017-01-31T10:15:34.430Z,180
2017-01-31T10:16:43.409Z,164
2017-01-31T10:17:52.391Z,168
2017-01-31T10:19:01.378Z,172
2017-01-31T10:20:10.368Z,172
2017-01-31T10:21:19.379Z,184
2017-01-31T10:22:28.364Z,192
2017-01-31T10:23:37.350Z,200
2017-01-31T10:24:46.341Z,212
2017-01-31T10:25:55.328Z,220
2017-01-31T10:27:04.322Z,232
2017-01-31T10:28:13.316Z,252
2017-01-31T10:29:22.294Z,256
2017-01-31T10:30:31.278Z,244
2017-01-31T10:31:40.266Z,256
2017-01-31T10:32:49.736Z,272
2017-01-31T10:33:58.717Z,316
2017-01-31T10:35:08.155Z,360
2017-01-31T10:36:17.136Z,364
2017-01-31T10:37:26.647Z,328
2017-01-31T10:38:36.056Z,276
2017-01-31T10:39:45.038Z,272
2017-01-31T10:40:54.035Z,260
2017-01-31T10:42:03.023Z,260
2017-01-31T10:43:12.420Z,280
2017-01-31T10:44:21.410Z,264
2017-01-31T10:45:30.397Z,256
2017-01-31T10:46:39.394Z,260
2017-01-31T10:47:48.379Z,260
2017-01-31T10:48:57.382Z,232
2017-01-31T10:50:06.368Z,256
2017-01-31T10:51:15.367Z,256
2017-01-31T10:52:24.345Z,248
2017-01-31T10:53:33.333Z,236
2017-01-31T10:54:42.331Z,260
2017-01-31T10:55:51.336Z,264
2017-01-31T10:57:00.336Z,248
2017-01-31T10:58:09.325Z,220
2017-01-31T10:59:18.316Z,200
2017-01-31T11:00:27.295Z,188
2017-01-31T11:01:36.285Z,184
2017-01-31T11:02:45.270Z,196
2017-01-31T11:03:54.260Z,188
2017-01-31T11:05:03.248Z,180
2017-01-31T11:06:12.236Z,196
2017-01-31T11:07:21.229Z,188
2017-01-31T11:08:30.232Z,196
2017-01-31T11:09:39.674Z,204
2017-01-31T11:10:48.654Z,208
2017-01-31T11:11:57.649Z,204
2017-01-31T11:13:06.640Z,176
2017-01-31T11:14:15.617Z,180
2017-01-31T11:15:24.640Z,192
2017-01-31T11:16:33.625Z,176
2017-01-31T11:17:42.663Z,176
2017-01-31T11:18:51.651Z,176
2017-01-31T11:20:00.731Z,168
2017-01-31T11:21:09.844Z,160
2017-01-31T11:22:18.835Z,152
2017-01-31T11:23:27.831Z,160
2017-01-31T11:24:36.831Z,152
2017-01-31T11:25:46.351Z,136
2017-01-31T11:26:55.610Z,136
2017-01-31T11:28:04.587Z,136
2017-01-31T11:29:14.202Z,124
2017-01-31T11:30:23.848Z,116
2017-01-31T11:31:33.558Z,116
2017-01-31T11:32:42.539Z,124
2017-01-31T11:33:51.542Z,124
2017-01-31T11:35:00.520Z,128
2017-01-31T11:36:09.512Z,128
2017-01-31T11:37:18.649Z,136
2017-01-31T11:38:27.964Z,132
2017-01-31T11:39:37.428Z,136
2017-01-31T11:40:46.422Z,140
2017-01-31T11:41:55.499Z,140
2017-01-31T11:43:04.588Z,160
2017-01-31T11:44:14.380Z,168
2017-01-31T11:45:23.380Z,156
2017-01-31T11:46:32.825Z,160
2017-01-31T11:47:41.879Z,168
2017-01-31T11:48:50.916Z,176
2017-01-31T11:50:00.106Z,156
2017-01-31T11:51:09.754Z,172
2017-01-31T11:52:18.889Z,168
2017-01-31T11:53:27.882Z,188
2017-01-31T11:54:36.878Z,192
2017-01-31T11:55:45.881Z,196
2017-01-31T11:56:55.308Z,236
2017-01-31T11:58:04.711Z,252
2017-01-31T11:59:14.864Z,280
2017-01-31T12:00:23.934Z,256
2017-01-31T12:01:32.956Z,264
2017-01-31T12:02:42.906Z,256
2017-01-31T12:03:52.520Z,220
2017-01-31T12:05:02.139Z,196
2017-01-31T12:06:12.772Z,180
2017-01-31T12:07:22.132Z,164
2017-01-31T12:08:31.177Z,152
2017-01-31T12:09:40.157Z,144
2017-01-31T12:10:49.243Z,164
2017-01-31T12:11:58.237Z,180
2017-01-31T12:13:07.652Z,192
2017-01-31T12:14:16.656Z,208
2017-01-31T12:15:25.653Z,212
2017-01-31T12:16:34.641Z,236
2017-01-31T12:17:43.628Z,248
2017-01-31T12:18:52.616Z,244
2017-01-31T12:20:01.642Z,220
2017-01-31T12:21:10.698Z,216
2017-01-31T12:22:20.011Z,224
2017-01-31T12:23:29.008Z,248
2017-01-31T12:24:38.635Z,264
2017-01-31T12:25:47.628Z,264
2017-01-31T12:26:56.627Z,276
2017-01-31T12:28:05.659Z,272
2017-01-31T12:29:15.319Z,280
2017-01-31T12:30:24.379Z,288
2017-01-31T12:31:34.231Z,304
2017-01-31T12:32:43.262Z,284
2017-01-31T12:33:52.282Z,276
2017-01-31T12:35:01.317Z,256
2017-01-31T12:36:10.859Z,272
2017-01-31T12:37:19.950Z,264
2017-01-31T12:38:29.008Z,208
2017-01-31T12:39:38.088Z,180
2017-01-31T12:40:47.797Z,176
2017-01-31T12:41:57.291Z,176
2017-01-31T12:43:06.304Z,180
2017-01-31T12:44:15.354Z,168
2017-01-31T12:45:24.356Z,160
2017-01-31T12:46:33.352Z,148
2017-01-31T12:47:42.367Z,144
2017-01-31T12:48:51.358Z,164
2017-01-31T12:50:00.502Z,172
2017-01-31T12:51:09.617Z,208
2017-01-31T12:52:18.602Z,212
2017-01-31T12:53:27.592Z,184
2017-01-31T12:54:36.668Z,172
2017-01-31T12:55:45.805Z,176
2017-01-31T12:56:54.800Z,196
2017-01-31T12:58:03.908Z,204
2017-01-31T12:59:13.372Z,184
2017-01-31T13:00:28.512Z,192
2017-01-31T13:01:37.907Z,188
2017-01-31T13:02:46.896Z,168
2017-01-31T13:03:55.880Z,176
2017-01-31T13:05:04.914Z,172
2017-01-31T13:06:14.339Z,156
2017-01-31T13:07:23.423Z,152
2017-01-31T13:08:32.443Z,132
2017-01-31T13:09:41.611Z,120
2017-01-31T13:10:51.015Z,112
2017-01-31T13:12:00.068Z,104
2017-01-31T13:13:09.398Z,92
2017-01-31T13:14:18.521Z,88
2017-01-31T13:15:28.470Z,100
2017-01-31T13:16:39.473Z,96
2017-01-31T13:17:49.092Z,124
2017-01-31T13:18:58.471Z,156
2017-01-31T13:20:07.520Z,148
2017-01-31T13:21:16.526Z,128
2017-01-31T13:22:25.524Z,132
2017-01-31T13:23:34.539Z,116
2017-01-31T13:24:43.542Z,112
2017-01-31T13:25:52.897Z,96
2017-01-31T13:27:01.899Z,76
2017-01-31T13:28:10.917Z,76
2017-01-31T13:29:19.909Z,76
2017-01-31T13:30:28.908Z,76
2017-01-31T13:33:23.869Z,76
2017-01-31T13:34:32.869Z,72
2017-01-31T13:35:42.278Z,80
2017-01-31T13:36:51.281Z,92
2017-01-31T13:38:00.261Z,112
2017-01-31T13:39:09.663Z,112
2017-01-31T13:40:18.647Z,104
2017-01-31T13:41:27.634Z,96
2017-01-31T13:42:36.626Z,96
2017-01-31T13:43:45.629Z,88
2017-01-31T13:44:54.626Z,76
2017-01-31T13:46:03.615Z,72
2017-01-31T13:47:12.605Z,76
2017-01-31T13:48:21.594Z,76
2017-01-31T13:49:30.590Z,80
2017-01-31T13:50:39.597Z,92
2017-01-31T13:51:48.582Z,72
2017-01-31T13:52:57.576Z,56
2017-01-31T13:54:06.573Z,56
2017-01-31T13:55:15.570Z,68
2017-01-31T13:56:24.577Z,72
2017-01-31T13:57:33.566Z,80
2017-01-31T13:58:43.450Z,68
2017-01-31T13:59:52.470Z,64
2017-01-31T14:01:01.454Z,64
2017-01-31T14:02:10.526Z,60
2017-01-31T14:03:19.513Z,56
2017-01-31T14:04:28.515Z,56
2017-01-31T14:05:37.503Z,52
2017-01-31T14:06:46.483Z,48
2017-01-31T14:07:55.511Z,48
2017-01-31T14:09:04.583Z,52
2017-01-31T14:10:13.680Z,48
2017-01-31T14:11:22.667Z,48
2017-01-31T14:12:31.663Z,44
2017-01-31T14:13:40.650Z,44
2017-01-31T14:14:49.655Z,44
2017-01-31T14:15:58.655Z,48
2017-01-31T14:17:08.050Z,48
2017-01-31T14:18:17.048Z,52
2017-01-31T14:19:26.030Z,60
2017-01-31T14:20:35.026Z,68
2017-01-31T14:21:44.019Z,68
2017-01-31T14:22:53.421Z,60
2017-01-31T14:24:02.397Z,60
2017-01-31T14:25:11.406Z,56
2017-01-31T14:26:20.395Z,56
2017-01-31T14:27:29.393Z,64
2017-01-31T14:28:38.796Z,68
2017-01-31T14:29:47.798Z,64
2017-01-31T14:30:56.777Z,64
2017-01-31T14:32:05.780Z,68
2017-01-31T14:33:14.758Z,68
2017-01-31T14:34:23.765Z,68
2017-01-31T14:35:32.771Z,64
2017-01-31T14:36:41.755Z,64
2017-01-31T14:37:50.750Z,60
2017-01-31T14:39:00.135Z,52
2017-01-31T14:40:09.130Z,52
2017-01-31T14:41:18.105Z,52
2017-01-31T14:42:27.099Z,48
2017-01-31T14:43:36.505Z,40
2017-01-31T14:44:45.491Z,40
2017-01-31T14:45:55.260Z,32
2017-01-31T14:47:05.742Z,32
2017-01-31T14:48:14.741Z,32
2017-01-31T14:49:23.727Z,32
2017-01-31T14:50:32.722Z,36
2017-01-31T14:51:42.244Z,36
2017-01-31T14:52:53.290Z,32
2017-01-31T14:54:03.232Z,32
2017-01-31T14:55:12.553Z,28
2017-01-31T14:56:22.012Z,32
2017-01-31T14:57:31.012Z,28
2017-01-31T14:58:40.005Z,24
2017-01-31T14:59:49.009Z,24
2017-01-31T15:00:58.004Z,28
2017-01-31T15:02:07.418Z,28
2017-01-31T15:03:16.414Z,24
2017-01-31T15:04:25.412Z,28
2017-01-31T15:05:34.412Z,24
2017-01-31T15:06:43.395Z,24
2017-01-31T15:07:52.386Z,24
2017-01-31T15:09:01.408Z,24
2017-01-31T15:10:10.404Z,24
2017-01-31T15:11:19.456Z,24
2017-01-31T15:12:28.448Z,24
2017-01-31T15:13:37.431Z,24
2017-01-31T15:14:48.753Z,20
2017-01-31T15:15:57.820Z,16
2017-01-31T15:17:06.812Z,20
2017-01-31T15:18:19.177Z,20
2017-01-31T15:19:28.604Z,20
2017-01-31T15:20:37.667Z,24
2017-01-31T15:21:46.664Z,20
2017-01-31T15:22:55.668Z,24
2017-01-31T15:24:04.655Z,16
2017-01-31T15:25:13.654Z,16
2017-01-31T15:26:22.632Z,16
2017-01-31T15:27:31.618Z,16
2017-01-31T15:28:40.622Z,12
2017-01-31T15:29:49.655Z,12
2017-01-31T15:30:58.672Z,12
2017-01-31T15:32:07.711Z,8
2017-01-31T15:33:17.122Z,8
2017-01-31T15:34:26.968Z,4
2017-01-31T15:35:38.274Z,8
2017-01-31T15:36:47.749Z,8
2017-01-31T15:37:56.785Z,4
2017-01-31T15:39:05.791Z,4
2017-01-31T15:40:14.776Z,8
2017-01-31T15:41:23.774Z,8
2017-01-31T15:42:32.763Z,8
2017-01-31T15:43:41.764Z,12
2017-01-31T15:44:51.014Z,8
2017-01-31T15:46:00.907Z,12
2017-01-31T15:47:09.932Z,8
2017-01-31T15:48:18.936Z,8
2017-01-31T15:49:27.942Z,8
2017-01-31T15:50:36.992Z,8
2017-01-31T15:51:45.975Z,8
2017-01-31T15:52:54.968Z,8
2017-01-31T15:54:04.054Z,8
2017-01-31T15:55:13.054Z,8
2017-01-31T15:56:22.089Z,8
2017-01-31T15:57:31.697Z,8
2017-01-31T15:58:41.760Z,4
2017-01-31T15:59:52.168Z,8
2017-01-31T16:01:01.675Z,4
2017-01-31T16:02:13.155Z,4
2017-01-31T16:03:22.982Z,4
2017-01-31T16:04:33.252Z,4
2017-01-31T16:05:43.556Z,4
2017-01-31T16:06:54.678Z,8
2017-01-31T16:08:04.950Z,4
2017-01-31T16:09:14.749Z,4
2017-01-31T16:10:24.860Z,4
2017-01-31T16:11:34.364Z,4
2017-01-31T16:12:45.372Z,4
2017-01-31T16:13:55.304Z,4
2017-01-31T16:15:05.642Z,4
2017-01-31T16:16:15.341Z,4
2017-01-31T16:17:25.280Z,4
2017-01-31T16:18:35.135Z,4
2017-01-31T16:19:44.917Z,4
2017-01-31T16:20:54.344Z,4
2017-01-31T16:22:04.527Z,4
2017-01-31T16:23:14.673Z,4
2017-01-31T16:24:24.923Z,4
2017-01-31T16:25:34.548Z,4
2017-01-31T16:26:44.403Z,4
2017-01-31T16:27:54.365Z,4
2017-01-31T16:29:04.770Z,4
2017-01-31T16:30:14.790Z,4
2017-01-31T16:31:24.642Z,4
2017-01-31T16:32:34.950Z,4
2017-01-31T16:33:45.086Z,4
2017-01-31T16:34:55.021Z,4
2017-01-31T16:36:04.745Z,4
2017-01-31T16:37:14.961Z,4